createdAt,value
2019-04-14T00:01:28.375Z,95790.61
2019-04-14T00:04:29.279Z,95784.92
2019-04-14T00:07:16.940Z,95784.80
2019-04-14T00:10:07.153Z,95777.66
2019-04-14T00:12:55.635Z,95769.06
2019-04-14T00:15:47.094Z,95770.06
2019-04-14T00:18:33.712Z,95773.14
2019-04-14T00:21:21.803Z,95770.89
2019-04-14T00:24:09.517Z,95767.95
2019-04-14T00:26:57.501Z,95760.38
2019-04-14T00:29:45.763Z,95755.36
2019-04-14T00:32:35.453Z,95758.39
2019-04-14T00:35:29.997Z,95759.25
2019-04-14T00:38:26.741Z,95760.80
2019-04-14T00:41:34.341Z,95751.64
2019-04-14T00:44:34.008Z,95748.62
2019-04-14T00:47:24.882Z,95755.58
2019-04-14T00:50:12.686Z,95750.41
2019-04-14T00:53:01.213Z,95749.45
2019-04-14T00:55:49.011Z,95746.78
2019-04-14T00:58:36.856Z,95743.27
2019-04-14T01:01:24.455Z,95743.79
2019-04-14T01:04:12.251Z,95746.54
2019-04-14T01:07:00.111Z,95737.44
2019-04-14T01:09:48.774Z,95728.86
2019-04-14T01:12:36.642Z,95729.22
2019-04-14T01:15:24.817Z,95737.73
2019-04-14T01:18:12.631Z,95734.85
2019-04-14T01:21:00.464Z,95734.81
2019-04-14T01:23:48.079Z,95735.84
2019-04-14T01:26:35.661Z,95738.27
2019-04-14T01:29:23.369Z,95736.45
2019-04-14T01:32:11.238Z,95730.05
2019-04-14T01:34:59.341Z,95739.08
2019-04-14T01:37:47.109Z,95734.06
2019-04-14T01:40:35.862Z,95735.98
2019-04-14T01:43:23.561Z,95730.11
2019-04-14T01:46:17.815Z,95742.73
2019-04-14T01:49:00.689Z,95739.97
2019-04-14T01:52:08.175Z,95738.41
2019-04-14T01:55:16.258Z,95742.17
2019-04-14T01:58:16.416Z,95737.88
2019-04-14T02:01:23.861Z,95743.76
2019-04-14T02:04:11.735Z,95744.48
2019-04-14T02:06:59.510Z,95745.56
2019-04-14T02:09:47.086Z,95751.27
2019-04-14T02:12:35.090Z,95755.55
2019-04-14T02:15:22.341Z,95752.15
2019-04-14T02:18:10.101Z,95750.97
2019-04-14T02:20:57.956Z,95750.22
2019-04-14T02:23:45.471Z,95755.24
2019-04-14T02:26:33.168Z,95757.84
2019-04-14T02:29:21.187Z,95751.23
2019-04-14T02:32:41.882Z,95757.16
2019-04-14T02:35:32.220Z,95754.62
2019-04-14T02:38:23.356Z,95755.43
2019-04-14T02:46:47.733Z,95748.01
2019-04-14T02:49:34.932Z,95760.73
2019-04-14T02:52:25.851Z,95762.86
2019-04-14T02:57:52.517Z,95762.70
2019-04-14T03:00:49.059Z,95760.78
2019-04-14T03:03:41.343Z,95768.06
2019-04-14T03:06:25.738Z,95762.50
2019-04-14T03:09:38.121Z,95760.27
2019-04-14T03:14:54.092Z,95769.19
2019-04-14T03:18:00.575Z,95763.05
2019-04-14T03:21:19.576Z,95761.34
2019-04-14T03:24:31.636Z,95764.38
2019-04-14T03:27:45.922Z,95765.41
2019-04-14T03:30:48.722Z,95759.44
2019-04-14T03:33:31.892Z,95763.72
2019-04-14T03:41:41.329Z,95761.77
2019-04-14T03:44:37.753Z,95765.41
2019-04-14T03:47:19.679Z,95759.31
2019-04-14T03:50:09.648Z,95762.30
2019-04-14T03:56:02.415Z,95764.23
2019-04-14T03:58:47.134Z,95761.77
2019-04-14T04:01:36.652Z,95764.44
2019-04-14T04:04:25.437Z,95765.47
2019-04-14T04:07:12.599Z,95767.41
2019-04-14T04:10:09.379Z,95763.86
2019-04-14T04:12:57.645Z,95765.31
2019-04-14T04:15:45.472Z,95759.95
2019-04-14T04:18:44.779Z,95757.89
2019-04-14T04:21:34.069Z,95762.36
2019-04-14T04:24:39.642Z,95769.31
2019-04-14T04:27:31.565Z,95770.38
2019-04-14T04:30:27.703Z,95764.01
2019-04-14T04:33:24.206Z,95765.83
2019-04-14T04:36:22.711Z,95769.53
2019-04-14T04:39:22.205Z,95769.04
2019-04-14T04:42:09.316Z,95767.47
2019-04-14T04:44:57.496Z,95769.61
2019-04-14T04:47:45.400Z,95769.88
2019-04-14T04:50:34.541Z,95776.03
2019-04-14T04:53:22.333Z,95772.03
2019-04-14T04:56:10.164Z,95776.83
2019-04-14T04:58:57.543Z,95772.29
2019-04-14T05:01:45.321Z,95779.14
2019-04-14T05:04:33.171Z,95769.55
2019-04-14T05:07:20.960Z,95774.16
2019-04-14T05:10:33.300Z,95770.81
2019-04-14T05:13:25.383Z,95767.38
2019-04-14T05:16:13.099Z,95782.67
2019-04-14T05:19:13.993Z,95783.25
2019-04-14T05:21:51.749Z,95784.28
2019-04-14T05:24:39.757Z,95783.25
2019-04-14T05:27:27.643Z,95796.05
2019-04-14T05:30:15.425Z,95795.75
2019-04-14T05:33:03.344Z,95791.71
2019-04-14T05:35:51.036Z,95796.56
2019-04-14T05:38:38.895Z,95794.40
2019-04-14T05:41:26.536Z,95799.13
2019-04-14T05:44:14.387Z,95802.95
2019-04-14T05:47:02.193Z,95805.00
2019-04-14T05:49:52.936Z,95806.31
2019-04-14T05:52:40.353Z,95807.61
2019-04-14T05:55:28.713Z,95810.83
2019-04-14T05:58:16.443Z,95808.15
2019-04-14T06:01:04.731Z,95811.72
2019-04-14T06:03:52.190Z,95810.35
2019-04-14T06:06:40.124Z,95803.39
2019-04-14T06:09:27.740Z,95806.11
2019-04-14T06:12:15.574Z,95810.48
2019-04-14T06:15:02.788Z,95808.34
2019-04-14T06:17:50.058Z,95801.73
2019-04-14T06:20:37.688Z,95808.66
2019-04-14T06:23:25.729Z,95800.30
2019-04-14T06:26:13.658Z,95802.85
2019-04-14T06:29:01.496Z,95804.94
2019-04-14T06:32:04.656Z,95805.16
2019-04-14T06:35:09.809Z,95810.75
2019-04-14T06:38:02.768Z,95805.84
2019-04-14T06:41:08.103Z,95804.28
2019-04-14T06:43:55.546Z,95799.36
2019-04-14T06:46:43.222Z,95807.63
2019-04-14T06:49:30.495Z,95800.44
2019-04-14T06:52:17.826Z,95797.87
2019-04-14T06:55:05.764Z,95796.16
2019-04-14T06:57:53.610Z,95792.50
2019-04-14T07:00:41.006Z,95798.09
2019-04-14T07:03:28.857Z,95800.80
2019-04-14T07:06:16.379Z,95791.91
2019-04-14T07:09:06.050Z,95796.09
2019-04-14T07:11:53.717Z,95801.70
2019-04-14T07:14:41.408Z,95798.03
2019-04-14T07:17:29.008Z,95804.88
2019-04-14T07:20:18.980Z,95794.25
2019-04-14T07:23:06.461Z,95796.22
2019-04-14T07:25:53.904Z,95793.25
2019-04-14T07:28:42.229Z,95797.77
2019-04-14T07:31:48.928Z,95798.19
2019-04-14T07:34:54.558Z,95795.22
2019-04-14T07:37:57.528Z,95799.21
2019-04-14T07:40:51.944Z,95799.47
2019-04-14T07:43:57.141Z,95801.97
2019-04-14T07:47:19.435Z,95808.49
2019-04-14T07:50:31.656Z,95808.25
2019-04-14T07:53:44.384Z,95803.45
2019-04-14T07:56:57.090Z,95812.84
2019-04-14T07:59:54.421Z,95809.33
2019-04-14T08:03:01.146Z,95808.25
2019-04-14T08:05:48.548Z,95812.23
2019-04-14T08:08:36.062Z,95815.16
2019-04-14T08:11:23.719Z,95818.14
2019-04-14T08:14:11.690Z,95820.97
2019-04-14T08:16:59.627Z,95823.67
2019-04-14T08:19:47.699Z,95820.45
2019-04-14T08:22:35.429Z,95830.32
2019-04-14T08:25:23.082Z,95822.88
2019-04-14T08:28:10.586Z,95831.80
2019-04-14T08:30:57.890Z,95832.11
2019-04-14T08:33:45.805Z,95832.43
2019-04-14T08:36:33.452Z,95837.53
2019-04-14T08:39:21.001Z,95839.36
2019-04-14T08:42:17.104Z,95839.85
2019-04-14T08:45:13.409Z,95842.57
2019-04-14T08:48:22.967Z,95844.70
2019-04-14T08:51:36.061Z,95833.81
2019-04-14T08:54:45.658Z,95829.51
2019-04-14T08:57:58.625Z,95836.53
2019-04-14T09:00:53.208Z,95837.11
2019-04-14T09:03:55.750Z,95836.18
2019-04-14T09:06:50.815Z,95839.31
2019-04-14T09:09:47.347Z,95842.52
2019-04-14T09:12:37.288Z,95844.01
2019-04-14T09:15:24.916Z,95848.34
2019-04-14T09:18:12.537Z,95844.67
2019-04-14T09:20:59.871Z,95846.27
2019-04-14T09:23:48.011Z,95847.34
2019-04-14T09:26:35.605Z,95853.81
2019-04-14T09:29:23.152Z,95855.36
2019-04-14T09:32:12.340Z,95851.11
2019-04-14T09:35:00.486Z,95857.75
2019-04-14T09:37:48.116Z,95856.13
2019-04-14T09:40:35.825Z,95860.02
2019-04-14T09:43:23.419Z,95862.63
2019-04-14T09:46:11.004Z,95866.58
2019-04-14T09:48:58.483Z,95865.55
2019-04-14T09:51:45.741Z,95866.55
2019-04-14T09:54:33.087Z,95863.62
2019-04-14T09:57:20.580Z,95867.05
2019-04-14T10:00:08.419Z,95873.05
2019-04-14T10:02:56.096Z,95876.22
2019-04-14T10:05:43.932Z,95876.33
2019-04-14T10:08:32.004Z,95886.50
2019-04-14T10:11:19.683Z,95883.07
2019-04-14T10:14:07.214Z,95889.28
2019-04-14T10:16:55.186Z,95890.28
2019-04-14T10:19:42.577Z,95893.45
2019-04-14T10:22:34.088Z,95894.53
2019-04-14T10:25:19.298Z,95893.70
2019-04-14T10:28:06.787Z,95897.83
2019-04-14T10:30:54.091Z,95897.47
2019-04-14T10:33:41.336Z,95892.27
2019-04-14T10:36:28.958Z,95893.27
2019-04-14T10:39:16.381Z,95898.04
2019-04-14T10:42:29.201Z,95897.34
2019-04-14T10:45:18.496Z,95896.53
2019-04-14T10:48:06.477Z,95901.00
2019-04-14T10:50:54.172Z,95899.62
2019-04-14T10:53:42.058Z,95901.59
2019-04-14T10:56:29.402Z,95899.66
2019-04-14T10:59:17.051Z,95903.31
2019-04-14T11:02:04.532Z,95901.80
2019-04-14T11:04:52.512Z,95908.37
2019-04-14T11:07:39.799Z,95918.40
2019-04-14T11:10:27.419Z,95914.89
2019-04-14T11:13:14.925Z,95914.41
2019-04-14T11:16:02.863Z,95904.39
2019-04-14T11:18:50.165Z,95898.60
2019-04-14T11:21:42.873Z,95895.48
2019-04-14T11:24:27.384Z,95896.56
2019-04-14T11:27:14.744Z,95899.08
2019-04-14T11:30:02.265Z,95904.11
2019-04-14T11:33:12.271Z,95905.63
2019-04-14T11:36:06.599Z,95898.61
2019-04-14T11:39:07.290Z,95905.11
2019-04-14T11:41:55.094Z,95905.69
2019-04-14T11:44:42.784Z,95908.78
2019-04-14T11:47:30.263Z,95913.35
2019-04-14T11:50:18.034Z,95917.36
2019-04-14T11:53:05.956Z,95916.40
2019-04-14T11:55:53.662Z,95919.70
2019-04-14T11:58:41.150Z,95920.11
2019-04-14T12:01:46.783Z,95926.80
2019-04-14T12:04:56.737Z,95927.33
2019-04-14T12:07:51.008Z,95934.94
2019-04-14T12:10:38.744Z,95937.94
2019-04-14T12:13:26.200Z,95932.98
2019-04-14T12:16:13.948Z,95935.00
2019-04-14T12:19:01.770Z,95937.60
2019-04-14T12:21:49.991Z,95937.53
2019-04-14T12:24:37.236Z,95943.45
2019-04-14T12:27:24.788Z,95945.25
2019-04-14T12:30:13.677Z,95947.05
2019-04-14T12:33:01.710Z,95952.11
2019-04-14T12:35:50.023Z,95948.00
2019-04-14T12:38:37.626Z,95949.62
2019-04-14T12:41:31.529Z,95947.86
2019-04-14T12:44:41.304Z,95946.94
2019-04-14T12:47:44.168Z,95943.36
2019-04-14T12:50:35.279Z,95949.50
2019-04-14T12:53:23.239Z,95956.55
2019-04-14T12:56:11.633Z,95949.96
2019-04-14T12:59:18.744Z,95963.62
2019-04-14T13:02:18.996Z,95959.77
2019-04-14T13:05:07.081Z,95959.33
2019-04-14T13:07:54.914Z,95959.42
2019-04-14T13:10:43.131Z,95960.53
2019-04-14T13:13:31.243Z,95961.27
2019-04-14T13:16:18.626Z,95964.64
2019-04-14T13:19:06.631Z,95969.28
2019-04-14T13:21:54.571Z,95964.58
2019-04-14T13:24:42.446Z,95961.79
2019-04-14T13:27:29.785Z,95963.64
2019-04-14T13:30:18.856Z,95966.35
2019-04-14T13:33:06.614Z,95963.27
2019-04-14T13:35:54.481Z,95958.72
2019-04-14T13:38:42.236Z,95969.47
2019-04-14T13:41:30.098Z,95970.00
2019-04-14T13:44:18.114Z,95967.27
2019-04-14T13:47:05.981Z,95973.80
2019-04-14T13:49:54.108Z,95977.80
2019-04-14T13:52:47.143Z,95971.38
2019-04-14T13:55:31.438Z,95976.72
2019-04-14T13:58:18.953Z,95968.36
2019-04-14T14:01:06.518Z,95970.81
2019-04-14T14:03:54.084Z,95979.02
2019-04-14T14:06:41.918Z,95974.81
2019-04-14T14:09:29.217Z,95977.02
2019-04-14T14:12:23.769Z,95986.52
2019-04-14T14:15:38.992Z,95980.59
2019-04-14T14:18:51.441Z,95987.04
2019-04-14T14:21:45.893Z,95987.73
2019-04-14T14:24:42.596Z,95983.63
2019-04-14T14:27:30.139Z,95990.28
2019-04-14T14:30:19.581Z,95991.33
2019-04-14T14:33:07.472Z,95990.84
2019-04-14T14:35:55.071Z,95996.78
2019-04-14T14:38:42.592Z,95990.77
2019-04-14T14:41:30.327Z,95990.16
2019-04-14T14:44:18.155Z,96001.51
2019-04-14T14:47:27.222Z,95992.47
2019-04-14T14:50:24.747Z,95991.33
2019-04-14T14:53:12.721Z,95991.42
2019-04-14T14:56:00.510Z,95995.73
2019-04-14T14:58:48.574Z,95994.10
2019-04-14T15:01:36.160Z,95990.97
2019-04-14T15:04:24.308Z,95999.91
2019-04-14T15:07:12.072Z,95999.58
2019-04-14T15:09:59.953Z,96002.75
2019-04-14T15:12:47.982Z,96005.39
2019-04-14T15:15:35.831Z,96006.15
2019-04-14T15:18:23.325Z,96012.54
2019-04-14T15:21:11.075Z,96015.14
2019-04-14T15:23:58.372Z,96008.97
2019-04-14T15:26:45.967Z,96012.56
2019-04-14T15:29:33.540Z,96011.39
2019-04-14T15:32:21.333Z,96011.48
2019-04-14T15:35:09.638Z,96011.66
2019-04-14T15:37:58.250Z,96016.17
2019-04-14T15:40:46.170Z,96017.95
2019-04-14T15:43:33.396Z,96021.91
2019-04-14T15:46:20.995Z,96023.72
2019-04-14T15:49:08.882Z,96022.61
2019-04-14T15:51:56.217Z,96020.25
2019-04-14T15:54:43.886Z,96025.92
2019-04-14T15:57:53.617Z,96024.73
2019-04-14T16:01:02.670Z,96022.26
2019-04-14T16:03:57.991Z,96028.89
2019-04-14T16:07:03.339Z,96028.61
2019-04-14T16:09:59.289Z,96033.13
2019-04-14T16:13:14.922Z,96026.26
2019-04-14T16:16:09.190Z,96032.39
2019-04-14T16:19:10.104Z,96043.18
2019-04-14T16:21:57.648Z,96047.26
2019-04-14T16:24:44.917Z,96045.74
2019-04-14T16:27:50.650Z,96049.97
2019-04-14T16:31:12.940Z,96044.20
2019-04-14T16:34:02.688Z,96052.08
2019-04-14T16:36:50.883Z,96048.44
2019-04-14T16:39:38.341Z,96051.88
2019-04-14T16:42:25.739Z,96051.86
2019-04-14T16:45:14.080Z,96050.66
2019-04-14T16:48:01.735Z,96051.95
2019-04-14T16:50:49.862Z,96054.22
2019-04-14T16:53:40.095Z,96057.66
2019-04-14T16:56:47.714Z,96061.93
2019-04-14T16:59:35.302Z,96057.22
2019-04-14T17:02:23.011Z,96060.03
2019-04-14T17:05:10.916Z,96063.02
2019-04-14T17:07:58.407Z,96065.81
2019-04-14T17:10:46.440Z,96069.22
2019-04-14T17:13:37.251Z,96068.09
2019-04-14T17:16:38.641Z,96067.54
2019-04-14T17:19:48.450Z,96070.48
2019-04-14T17:22:47.875Z,96069.63
2019-04-14T17:25:40.534Z,96075.13
2019-04-14T17:28:46.975Z,96083.66
2019-04-14T17:31:49.382Z,96082.39
2019-04-14T17:35:00.226Z,96086.16
2019-04-14T17:38:12.896Z,96086.68
2019-04-14T17:41:19.449Z,96096.58
2019-04-14T17:44:14.282Z,96106.92
2019-04-14T17:47:18.427Z,96100.42
2019-04-14T17:50:40.168Z,96105.63
2019-04-14T17:53:21.560Z,96105.29
2019-04-14T17:56:19.941Z,96104.63
2019-04-14T17:59:30.551Z,96108.36
2019-04-14T18:02:38.379Z,96112.21
2019-04-14T18:05:36.823Z,96112.39
2019-04-14T18:08:55.393Z,96121.53
2019-04-14T18:12:10.998Z,96129.01
2019-04-14T18:15:11.535Z,96124.45
2019-04-14T18:18:15.445Z,96135.78
2019-04-14T18:21:06.083Z,96138.45
2019-04-14T18:23:54.309Z,96135.84
2019-04-14T18:26:41.439Z,96139.59
2019-04-14T18:29:39.855Z,96143.31
2019-04-14T18:32:49.136Z,96141.90
2019-04-14T18:35:55.322Z,96142.42
2019-04-14T18:38:51.246Z,96148.64
2019-04-14T18:41:49.178Z,96151.06
2019-04-14T18:45:04.473Z,96151.81
2019-04-14T18:47:56.267Z,96156.94
2019-04-14T18:51:02.880Z,96165.33
2019-04-14T18:54:07.072Z,96173.39
2019-04-14T18:57:07.217Z,96176.70
2019-04-14T19:00:00.469Z,96173.73
2019-04-14T19:02:48.031Z,96177.72
2019-04-14T19:05:35.668Z,96185.23
2019-04-14T19:08:23.088Z,96176.87
2019-04-14T19:11:28.622Z,96186.55
2019-04-14T19:14:20.158Z,96195.63
2019-04-14T19:17:23.999Z,96196.97
2019-04-14T19:20:13.165Z,96202.88
2019-04-14T19:23:00.864Z,96205.09
2019-04-14T19:25:48.749Z,96212.93
2019-04-14T19:28:36.054Z,96214.25
2019-04-14T19:31:24.078Z,96218.48
2019-04-14T19:34:11.996Z,96211.78
2019-04-14T19:36:59.543Z,96219.55
2019-04-14T19:39:47.283Z,96221.44
2019-04-14T19:42:35.293Z,96215.44
2019-04-14T19:45:49.438Z,96217.08
2019-04-14T19:48:34.426Z,96220.23
2019-04-14T19:51:22.260Z,96220.16
2019-04-14T19:54:09.959Z,96219.20
2019-04-14T19:56:57.774Z,96222.91
2019-04-14T19:59:45.373Z,96217.37
2019-04-14T20:02:33.532Z,96225.95
2019-04-14T20:05:21.007Z,96229.67
2019-04-14T20:08:08.968Z,96229.16
2019-04-14T20:10:56.524Z,96221.99
2019-04-14T20:13:46.404Z,96235.37
2019-04-14T20:17:06.028Z,96221.70
2019-04-14T20:20:02.214Z,96227.61
2019-04-14T20:23:11.302Z,96221.55
2019-04-14T20:26:22.883Z,96226.15
2019-04-14T20:29:16.989Z,96220.75
2019-04-14T20:32:15.324Z,96223.45
2019-04-14T20:35:03.143Z,96221.02
2019-04-14T20:37:50.657Z,96218.95
2019-04-14T20:40:37.817Z,96223.71
2019-04-14T20:43:25.748Z,96236.83
2019-04-14T20:46:13.624Z,96230.44
2019-04-14T20:49:01.452Z,96232.36
2019-04-14T20:51:49.109Z,96225.95
2019-04-14T20:54:36.774Z,96223.45
2019-04-14T20:57:24.259Z,96223.91
2019-04-14T21:00:12.400Z,96222.05
2019-04-14T21:03:18.116Z,96225.36
2019-04-14T21:06:14.177Z,96223.27
2019-04-14T21:09:26.636Z,96224.88
2019-04-14T21:12:32.622Z,96237.70
2019-04-14T21:15:33.363Z,96232.03
2019-04-14T21:18:30.621Z,96238.16
2019-04-14T21:21:28.334Z,96240.11
2019-04-14T21:24:22.445Z,96238.92
2019-04-14T21:27:16.444Z,96245.44
2019-04-14T21:30:26.556Z,96246.83
2019-04-14T21:33:32.219Z,96253.23
2019-04-14T21:36:42.558Z,96251.61
2019-04-14T21:39:55.807Z,96251.13
2019-04-14T21:42:43.426Z,96249.73
2019-04-14T21:45:30.975Z,96260.70
2019-04-14T21:48:18.853Z,96250.55
2019-04-14T21:51:06.044Z,96242.90
2019-04-14T21:53:53.568Z,96251.02
2019-04-14T21:56:41.020Z,96243.72
2019-04-14T21:59:31.514Z,96242.92
2019-04-14T22:02:37.143Z,96243.94
2019-04-14T22:05:35.122Z,96237.00
2019-04-14T22:08:26.351Z,96237.06
2019-04-14T22:11:17.798Z,96231.14
2019-04-14T22:14:05.833Z,96228.59
2019-04-14T22:16:52.945Z,96233.19
2019-04-14T22:19:41.314Z,96234.53
2019-04-14T22:22:29.166Z,96242.30
2019-04-14T22:25:16.624Z,96242.05
2019-04-14T22:28:04.302Z,96247.97
2019-04-14T22:30:52.008Z,96255.72
2019-04-14T22:33:39.806Z,96247.41
2019-04-14T22:36:27.722Z,96238.28
2019-04-14T22:39:16.380Z,96228.72
2019-04-14T22:42:03.900Z,96216.69
2019-04-14T22:44:52.249Z,96209.38
2019-04-14T22:47:40.312Z,96202.44
2019-04-14T22:50:28.493Z,96200.28
2019-04-14T22:53:16.331Z,96207.52
2019-04-14T22:56:04.280Z,96214.73
2019-04-14T22:58:51.932Z,96226.85
2019-04-14T23:01:42.497Z,96239.44
2019-04-14T23:04:54.560Z,96244.52
2019-04-14T23:08:22.070Z,96240.52
2019-04-14T23:11:38.477Z,96228.98
2019-04-14T23:14:53.637Z,96228.20
2019-04-14T23:18:12.039Z,96218.56
2019-04-14T23:21:27.863Z,96231.13
2019-04-14T23:24:28.012Z,96232.02
2019-04-14T23:27:15.321Z,96220.73
2019-04-14T23:30:03.016Z,96225.23
2019-04-14T23:32:50.809Z,96218.25
2019-04-14T23:35:38.645Z,96219.03
2019-04-14T23:38:26.374Z,96216.61
2019-04-14T23:41:13.577Z,96216.08
2019-04-14T23:44:02.158Z,96214.47
2019-04-14T23:46:49.956Z,96228.43
2019-04-14T23:49:37.491Z,96231.17
2019-04-14T23:52:25.103Z,96221.77
2019-04-14T23:55:13.082Z,96221.72
2019-04-14T23:58:00.586Z,96218.80
